Time;durP1;ratioP1;P1;durP2;ratioP2;P2;SDS_P1;SDS_P2;PMS_P1;PMS_P2;Temp;Humidity;BMP_temperature;BMP_pressure;BME280_temperature;BME280_humidity;BME280_pressure;Samples;Min_cycle;Max_cycle;Signal;HPM_P1;HPM_P2
2021/06/29 00:01:05;;;;;;;31.48;14.98;;;;;;;;;;5054491;28;20052;-61
2021/06/29 00:03:50;;;;;;;29.63;15.02;;;;;;;;;;5053896;28;20187;-62
2021/06/29 00:06:36;;;;;;;25.08;13.73;;;;;;;;;;5058080;28;20048;-61
2021/06/29 00:09:21;;;;;;;27.05;13.95;;;;;;;;;;5073406;28;20045;-61
2021/06/29 00:12:07;;;;;;;37.75;16.25;;;;;;;;;;5058526;28;20052;-61
2021/06/29 00:14:52;;;;;;;34.60;14.57;;;;;;;;;;5062216;28;20041;-61
2021/06/29 00:17:37;;;;;;;28.33;14.35;;;;;;;;;;5053336;28;20037;-61
2021/06/29 00:20:24;;;;;;;29.60;14.02;;;;;;;;;;5053211;28;20537;-61
2021/06/29 00:23:09;;;;;;;25.98;14.48;;;;;;;;;;5053508;28;20049;-62
2021/06/29 00:25:55;;;;;;;23.65;13.88;;;;;;;;;;5067906;28;20079;-62
2021/06/29 00:28:40;;;;;;;22.80;14.23;;;;;;;;;;5069469;28;20508;-61
2021/06/29 00:31:26;;;;;;;28.45;13.23;;;;;;;;;;5052880;28;20055;-61
2021/06/29 00:34:11;;;;;;;30.67;14.88;;;;;;;;;;5053052;28;20043;-61
2021/06/29 00:36:56;;;;;;;29.38;14.63;;;;;;;;;;5053013;28;20049;-61
2021/06/29 00:39:43;;;;;;;23.83;13.77;;;;;;;;;;5052871;28;20049;-61
2021/06/29 00:42:29;;;;;;;26.50;14.95;;;;;;;;;;5052936;28;20045;-61
2021/06/29 00:45:14;;;;;;;36.83;14.65;;;;;;;;;;5059225;28;20044;-61
2021/06/29 00:48:00;;;;;;;27.90;14.07;;;;;;;;;;5072869;28;20052;-62
2021/06/29 00:50:45;;;;;;;28.08;13.68;;;;;;;;;;5063462;28;20052;-62
2021/06/29 00:53:31;;;;;;;28.58;14.60;;;;;;;;;;5052720;28;20112;-61
2021/06/29 00:56:19;;;;;;;30.10;13.98;;;;;;;;;;5049560;28;20147;-61
2021/06/29 00:59:04;;;;;;;29.60;14.52;;;;;;;;;;5072603;28;20169;-62
2021/06/29 01:01:50;;;;;;;37.67;15.32;;;;;;;;;;5072488;28;20413;-61
2021/06/29 01:04:35;;;;;;;29.70;14.80;;;;;;;;;;5071854;28;20048;-61
2021/06/29 01:07:21;;;;;;;29.50;14.07;;;;;;;;;;5070893;28;20037;-61
2021/06/29 01:10:07;;;;;;;29.85;14.73;;;;;;;;;;5072199;28;20044;-61
2021/06/29 01:12:52;;;;;;;40.42;15.15;;;;;;;;;;5072628;28;20092;-61
2021/06/29 01:15:37;;;;;;;25.35;14.50;;;;;;;;;;5070813;28;20040;-61
2021/06/29 01:18:23;;;;;;;34.50;15.27;;;;;;;;;;5052496;28;20478;-61
2021/06/29 01:21:08;;;;;;;28.27;14.52;;;;;;;;;;5051970;28;20491;-61
2021/06/29 01:23:56;;;;;;;36.45;15.13;;;;;;;;;;5037448;28;20103;-61
2021/06/29 01:26:47;;;;;;;41.45;16.30;;;;;;;;;;5058459;28;20075;-61
2021/06/29 01:32:30;;;;;;;29.27;15.43;;;;;;;;;;5072185;28;20040;-62
2021/06/29 01:35:15;;;;;;;31.38;15.35;;;;;;;;;;5072375;28;20059;-61
2021/06/29 01:38:01;;;;;;;29.73;16.10;;;;;;;;;;5057543;28;20049;-61
2021/06/29 01:40:47;;;;;;;35.88;15.55;;;;;;;;;;5051924;28;20052;-62
2021/06/29 01:43:37;;;;;;;33.40;15.32;;;;;;;;;;5052255;28;20048;-61
2021/06/29 01:46:29;;;;;;;33.95;15.40;;;;;;;;;;5051956;28;20048;-61
2021/06/29 01:49:15;;;;;;;25.65;15.02;;;;;;;;;;5051835;28;20064;-61
2021/06/29 01:52:00;;;;;;;33.13;14.23;;;;;;;;;;5051952;28;20102;-61
2021/06/29 01:54:46;;;;;;;31.58;15.48;;;;;;;;;;5051825;28;20504;-61
2021/06/29 01:57:31;;;;;;;36.97;16.20;;;;;;;;;;5068416;28;20049;-62
2021/06/29 02:00:18;;;;;;;30.45;15.35;;;;;;;;;;5071867;28;20057;-61
2021/06/29 02:03:04;;;;;;;33.08;15.57;;;;;;;;;;5071843;28;20130;-62
2021/06/29 02:05:49;;;;;;;36.00;16.05;;;;;;;;;;5070994;28;20048;-62
2021/06/29 02:08:34;;;;;;;32.28;15.07;;;;;;;;;;5056473;28;20481;-61
2021/06/29 02:11:19;;;;;;;39.17;16.33;;;;;;;;;;5061577;28;20041;-62
2021/06/29 02:14:05;;;;;;;37.20;16.17;;;;;;;;;;5051628;28;20160;-62
2021/06/29 02:16:50;;;;;;;31.42;14.80;;;;;;;;;;5055526;28;20069;-62
2021/06/29 02:19:36;;;;;;;38.33;15.63;;;;;;;;;;5055431;28;20135;-62
2021/06/29 02:22:21;;;;;;;33.17;14.98;;;;;;;;;;5055734;28;20095;-62
2021/06/29 02:25:07;;;;;;;30.25;15.20;;;;;;;;;;5055724;28;20052;-62
2021/06/29 02:27:52;;;;;;;33.78;15.80;;;;;;;;;;5067292;28;20055;-62
2021/06/29 02:30:37;;;;;;;37.47;15.88;;;;;;;;;;5075093;28;20644;-62
2021/06/29 02:33:22;;;;;;;42.42;16.98;;;;;;;;;;5075430;28;20044;-61
2021/06/29 02:36:08;;;;;;;38.63;15.88;;;;;;;;;;5074958;28;20155;-61
2021/06/29 02:38:53;;;;;;;50.42;18.58;;;;;;;;;;5073254;28;20055;-61
2021/06/29 02:41:39;;;;;;;31.50;15.60;;;;;;;;;;5074990;28;20135;-62
2021/06/29 02:44:25;;;;;;;43.80;16.20;;;;;;;;;;5075305;28;20057;-62
2021/06/29 02:47:11;;;;;;;37.67;16.77;;;;;;;;;;5074348;28;20053;-62
2021/06/29 02:49:56;;;;;;;32.53;16.75;;;;;;;;;;5074662;28;20052;-61
2021/06/29 02:52:42;;;;;;;36.72;16.58;;;;;;;;;;5075231;28;20044;-61
2021/06/29 02:55:28;;;;;;;34.25;15.27;;;;;;;;;;5075038;28;20048;-61
2021/06/29 02:58:13;;;;;;;42.38;16.88;;;;;;;;;;5073897;28;20047;-62
2021/06/29 03:00:59;;;;;;;39.45;16.60;;;;;;;;;;5074704;28;20052;-61
2021/06/29 03:03:44;;;;;;;51.67;17.50;;;;;;;;;;5074983;28;20086;-61
2021/06/29 03:06:30;;;;;;;39.60;15.88;;;;;;;;;;5074526;28;20086;-61
2021/06/29 03:09:15;;;;;;;39.05;15.02;;;;;;;;;;5073947;28;20055;-63
2021/06/29 03:12:01;;;;;;;36.95;16.20;;;;;;;;;;5074699;28;20139;-63
2021/06/29 03:14:46;;;;;;;32.10;14.38;;;;;;;;;;5074683;28;20110;-63
2021/06/29 03:17:32;;;;;;;37.10;15.43;;;;;;;;;;5074515;28;20047;-64
2021/06/29 03:20:17;;;;;;;39.95;16.08;;;;;;;;;;5073282;28;20193;-63
2021/06/29 03:23:03;;;;;;;31.88;14.88;;;;;;;;;;5074406;28;20041;-63
2021/06/29 03:25:49;;;;;;;26.02;13.32;;;;;;;;;;5074700;28;20055;-63
2021/06/29 03:28:34;;;;;;;33.15;15.13;;;;;;;;;;5072869;28;20046;-64
2021/06/29 03:31:19;;;;;;;36.35;14.70;;;;;;;;;;5054030;28;20055;-64
2021/06/29 03:34:05;;;;;;;33.83;14.20;;;;;;;;;;5054449;28;20094;-64
2021/06/29 03:36:50;;;;;;;32.42;15.32;;;;;;;;;;5054166;28;20546;-64
2021/06/29 03:39:35;;;;;;;28.95;14.43;;;;;;;;;;5058604;28;20123;-64
2021/06/29 03:42:21;;;;;;;30.08;13.55;;;;;;;;;;5074391;28;20054;-64
2021/06/29 03:45:07;;;;;;;30.02;13.60;;;;;;;;;;5058995;28;20521;-64
2021/06/29 03:48:18;;;;;;;41.13;16.00;;;;;;;;;;5053765;28;20045;-63
2021/06/29 03:51:03;;;;;;;40.95;15.20;;;;;;;;;;5067595;28;20503;-63
2021/06/29 03:53:49;;;;;;;33.60;14.18;;;;;;;;;;5073964;28;20050;-63
2021/06/29 03:56:34;;;;;;;44.78;15.07;;;;;;;;;;5073855;28;20072;-64
2021/06/29 03:59:20;;;;;;;44.38;15.13;;;;;;;;;;5072948;28;20501;-63
2021/06/29 04:02:05;;;;;;;40.97;15.02;;;;;;;;;;5073997;28;20076;-63
2021/06/29 04:04:51;;;;;;;46.13;14.07;;;;;;;;;;5073580;28;20052;-63
2021/06/29 04:07:36;;;;;;;49.25;14.85;;;;;;;;;;5073772;28;20056;-63
2021/06/29 04:10:22;;;;;;;49.25;14.88;;;;;;;;;;5072215;28;20051;-63
2021/06/29 04:13:07;;;;;;;46.85;14.65;;;;;;;;;;5073629;28;20049;-64
2021/06/29 04:15:52;;;;;;;47.70;14.50;;;;;;;;;;5073514;28;20041;-63
2021/06/29 04:18:38;;;;;;;51.53;14.93;;;;;;;;;;5073500;28;20051;-64
2021/06/29 04:21:23;;;;;;;55.13;15.00;;;;;;;;;;5053027;28;20118;-63
2021/06/29 04:24:09;;;;;;;50.95;14.65;;;;;;;;;;5053392;28;20053;-64
2021/06/29 04:26:54;;;;;;;53.80;14.27;;;;;;;;;;5053345;28;20417;-64
2021/06/29 04:29:40;;;;;;;53.47;14.98;;;;;;;;;;5052901;28;20410;-63
2021/06/29 04:32:25;;;;;;;47.15;13.90;;;;;;;;;;5053267;28;20057;-64
2021/06/29 04:35:10;;;;;;;68.88;16.70;;;;;;;;;;5053233;28;20048;-63
2021/06/29 04:37:56;;;;;;;53.78;14.48;;;;;;;;;;5092330;22;20107;-64
2021/06/29 04:40:41;;;;;;;70.07;16.75;;;;;;;;;;5051913;28;20117;-64
2021/06/29 04:43:27;;;;;;;66.03;15.82;;;;;;;;;;5052454;28;20045;-64
2021/06/29 04:46:13;;;;;;;69.57;16.55;;;;;;;;;;5052804;28;20040;-64
2021/06/29 04:49:01;;;;;;;73.90;18.02;;;;;;;;;;5033116;28;20053;-64
2021/06/29 04:51:46;;;;;;;72.00;17.10;;;;;;;;;;5031584;28;20480;-64
2021/06/29 04:54:32;;;;;;;65.45;16.85;;;;;;;;;;5033380;28;20045;-64
2021/06/29 04:57:17;;;;;;;61.67;16.40;;;;;;;;;;5032904;28;20061;-64
2021/06/29 05:00:08;;;;;;;80.70;18.00;;;;;;;;;;5032120;28;20057;-64
2021/06/29 05:02:54;;;;;;;65.13;15.75;;;;;;;;;;5024456;28;20091;-64
2021/06/29 05:05:39;;;;;;;65.10;15.98;;;;;;;;;;5031846;28;20543;-64
2021/06/29 05:08:24;;;;;;;55.05;15.18;;;;;;;;;;5030461;28;20046;-64
2021/06/29 05:11:09;;;;;;;58.97;16.30;;;;;;;;;;5030234;28;20139;-64
2021/06/29 05:13:55;;;;;;;57.90;16.30;;;;;;;;;;5032777;28;20152;-64
2021/06/29 05:16:41;;;;;;;60.83;14.85;;;;;;;;;;5032565;28;20045;-64
2021/06/29 05:19:26;;;;;;;66.60;16.55;;;;;;;;;;5032248;28;20081;-64
2021/06/29 05:22:12;;;;;;;74.18;16.63;;;;;;;;;;5031095;28;20053;-64
2021/06/29 05:24:58;;;;;;;61.20;15.93;;;;;;;;;;5032625;28;20566;-64
2021/06/29 05:27:43;;;;;;;59.30;16.38;;;;;;;;;;5032388;28;20403;-64
2021/06/29 05:30:29;;;;;;;67.20;16.90;;;;;;;;;;5032048;28;20650;-64
2021/06/29 05:33:14;;;;;;;90.15;19.00;;;;;;;;;;5031583;28;20435;-64
2021/06/29 05:36:00;;;;;;;76.95;17.20;;;;;;;;;;5032329;28;20056;-64
2021/06/29 05:38:45;;;;;;;57.70;16.70;;;;;;;;;;5032097;28;20100;-64
2021/06/29 05:41:31;;;;;;;79.82;17.52;;;;;;;;;;5032105;28;20065;-64
2021/06/29 05:44:17;;;;;;;90.72;19.27;;;;;;;;;;5031643;28;20091;-64
2021/06/29 05:47:05;;;;;;;74.20;19.13;;;;;;;;;;5031961;28;20556;-63
2021/06/29 05:49:51;;;;;;;85.07;19.02;;;;;;;;;;5031610;28;20084;-64
2021/06/29 05:52:38;;;;;;;67.05;18.33;;;;;;;;;;5031069;28;20052;-64
2021/06/29 05:55:23;;;;;;;72.68;18.30;;;;;;;;;;5032101;28;20061;-64
2021/06/29 05:58:09;;;;;;;72.45;18.33;;;;;;;;;;5032066;28;20053;-64
2021/06/29 06:00:54;;;;;;;86.78;19.70;;;;;;;;;;5031040;28;20167;-64
2021/06/29 06:03:39;;;;;;;94.93;19.80;;;;;;;;;;5031912;28;20499;-64
2021/06/29 06:06:25;;;;;;;104.75;22.38;;;;;;;;;;5032019;28;20045;-64
2021/06/29 06:09:10;;;;;;;109.97;21.92;;;;;;;;;;5031985;28;20049;-64
2021/06/29 06:11:56;;;;;;;79.88;20.42;;;;;;;;;;5030717;28;20049;-64
2021/06/29 06:14:41;;;;;;;71.82;20.27;;;;;;;;;;5032102;28;20049;-64
2021/06/29 06:17:27;;;;;;;92.63;21.95;;;;;;;;;;5031754;28;20053;-64
2021/06/29 06:20:12;;;;;;;66.85;20.55;;;;;;;;;;5031497;28;20046;-64
2021/06/29 06:22:57;;;;;;;74.18;22.52;;;;;;;;;;5031998;28;20049;-65
2021/06/29 06:25:43;;;;;;;67.97;19.67;;;;;;;;;;5032151;28;20140;-65
2021/06/29 06:28:28;;;;;;;93.60;23.50;;;;;;;;;;5031854;28;20041;-64
2021/06/29 06:31:13;;;;;;;52.65;17.10;;;;;;;;;;5031055;28;20052;-65
2021/06/29 06:33:59;;;;;;;62.90;18.85;;;;;;;;;;5031953;28;20052;-64
2021/06/29 06:36:47;;;;;;;55.25;19.23;;;;;;;;;;5025349;28;20095;-64
2021/06/29 06:39:32;;;;;;;62.22;20.98;;;;;;;;;;5024659;28;20046;-65
2021/06/29 06:42:18;;;;;;;60.50;20.08;;;;;;;;;;5030779;28;20050;-64
2021/06/29 06:45:05;;;;;;;70.22;21.67;;;;;;;;;;5031936;28;20516;-64
2021/06/29 06:47:51;;;;;;;62.60;20.13;;;;;;;;;;5040167;28;20049;-64
2021/06/29 06:50:36;;;;;;;63.10;21.88;;;;;;;;;;5051686;28;20128;-65
2021/06/29 06:53:21;;;;;;;58.20;20.50;;;;;;;;;;5035820;28;20053;-64
2021/06/29 06:56:13;;;;;;;56.92;19.98;;;;;;;;;;5031989;28;20048;-64
2021/06/29 06:58:59;;;;;;;57.38;20.40;;;;;;;;;;5031603;28;20698;-65
2021/06/29 07:01:45;;;;;;;73.70;21.98;;;;;;;;;;5017516;28;20051;-64
2021/06/29 07:04:30;;;;;;;68.28;22.70;;;;;;;;;;5034429;28;20057;-65
2021/06/29 07:07:15;;;;;;;86.75;25.25;;;;;;;;;;5025961;28;20063;-65
2021/06/29 07:10:01;;;;;;;75.20;23.83;;;;;;;;;;5025621;28;20073;-65
2021/06/29 07:12:46;;;;;;;79.35;23.63;;;;;;;;;;5028801;28;20061;-64
2021/06/29 07:15:33;;;;;;;87.28;26.10;;;;;;;;;;5027373;28;20410;-64
2021/06/29 07:18:19;;;;;;;67.40;22.70;;;;;;;;;;5025611;28;20071;-65
2021/06/29 07:21:04;;;;;;;67.72;23.27;;;;;;;;;;5028717;28;20054;-64
2021/06/29 07:23:50;;;;;;;59.95;22.27;;;;;;;;;;5029877;28;20045;-64
2021/06/29 07:26:35;;;;;;;58.88;21.05;;;;;;;;;;5035095;28;20048;-64
2021/06/29 07:29:21;;;;;;;49.55;21.08;;;;;;;;;;5035148;28;20052;-64
2021/06/29 07:32:06;;;;;;;59.60;22.50;;;;;;;;;;5033264;28;20045;-64
2021/06/29 07:34:52;;;;;;;52.53;21.35;;;;;;;;;;5035787;28;20052;-64
2021/06/29 07:37:37;;;;;;;50.28;21.58;;;;;;;;;;5034390;28;20070;-65
2021/06/29 07:40:25;;;;;;;42.45;20.20;;;;;;;;;;5035665;28;20053;-65
2021/06/29 07:43:10;;;;;;;47.05;20.02;;;;;;;;;;5032440;28;20435;-65
2021/06/29 07:45:56;;;;;;;56.38;21.13;;;;;;;;;;5034654;28;20045;-65
2021/06/29 07:48:41;;;;;;;53.42;21.83;;;;;;;;;;5019910;28;20052;-65
2021/06/29 07:51:26;;;;;;;59.80;22.77;;;;;;;;;;5034341;28;20048;-65
2021/06/29 07:54:12;;;;;;;46.15;20.10;;;;;;;;;;5034158;28;20052;-65
2021/06/29 07:56:57;;;;;;;37.03;17.85;;;;;;;;;;5034737;28;20057;-65
2021/06/29 07:59:42;;;;;;;43.10;19.75;;;;;;;;;;5033146;28;20049;-65
2021/06/29 08:02:28;;;;;;;45.85;20.13;;;;;;;;;;5013987;28;20535;-64
2021/06/29 08:05:13;;;;;;;51.95;19.48;;;;;;;;;;5013761;28;20689;-64
2021/06/29 08:07:59;;;;;;;45.58;20.02;;;;;;;;;;5014097;28;20060;-64
2021/06/29 08:10:44;;;;;;;38.53;18.67;;;;;;;;;;5019108;28;20042;-64
2021/06/29 08:13:29;;;;;;;34.47;17.58;;;;;;;;;;5033474;28;20074;-64
2021/06/29 08:16:15;;;;;;;35.25;17.08;;;;;;;;;;5033699;28;20045;-64
2021/06/29 08:19:00;;;;;;;35.22;18.90;;;;;;;;;;5029824;28;20420;-64
2021/06/29 08:21:45;;;;;;;31.92;17.23;;;;;;;;;;5031368;28;20045;-65
2021/06/29 08:24:31;;;;;;;32.67;17.15;;;;;;;;;;5019628;28;20057;-65
2021/06/29 08:27:16;;;;;;;38.13;17.95;;;;;;;;;;5027168;28;20071;-65
2021/06/29 08:30:02;;;;;;;41.22;20.52;;;;;;;;;;5032923;28;20569;-64
2021/06/29 08:32:47;;;;;;;46.80;20.00;;;;;;;;;;5031649;28;20067;-64
2021/06/29 08:35:32;;;;;;;40.03;20.27;;;;;;;;;;5024557;28;20048;-64
2021/06/29 08:38:18;;;;;;;43.42;19.25;;;;;;;;;;5025723;28;20419;-64
2021/06/29 08:41:03;;;;;;;41.33;19.90;;;;;;;;;;5023350;28;20042;-64
2021/06/29 08:43:49;;;;;;;46.45;19.98;;;;;;;;;;5027228;28;20044;-65
2021/06/29 08:46:35;;;;;;;39.47;19.98;;;;;;;;;;5032596;28;20046;-64
2021/06/29 08:49:20;;;;;;;34.80;18.35;;;;;;;;;;5016713;28;20114;-64
2021/06/29 08:52:06;;;;;;;42.72;20.15;;;;;;;;;;5031420;28;20049;-64
2021/06/29 08:54:51;;;;;;;39.75;19.38;;;;;;;;;;5032854;28;20589;-64
2021/06/29 08:57:37;;;;;;;42.30;20.10;;;;;;;;;;5032850;28;20041;-64
2021/06/29 09:00:22;;;;;;;39.65;18.42;;;;;;;;;;5032645;28;20048;-64
2021/06/29 09:03:08;;;;;;;37.80;18.80;;;;;;;;;;5031296;28;20048;-64
2021/06/29 09:05:54;;;;;;;41.13;20.67;;;;;;;;;;5032756;28;20057;-64
2021/06/29 09:08:40;;;;;;;37.58;19.63;;;;;;;;;;5032646;28;20495;-64
2021/06/29 09:11:25;;;;;;;40.47;20.05;;;;;;;;;;5032367;28;20042;-64
2021/06/29 09:14:10;;;;;;;38.15;19.75;;;;;;;;;;5031766;28;20052;-65
2021/06/29 09:17:15;;;;;;;41.20;20.73;;;;;;;;;;5032466;28;20052;-64
2021/06/29 09:20:00;;;;;;;38.33;20.33;;;;;;;;;;5032335;28;20049;-64
2021/06/29 09:22:46;;;;;;;40.78;20.70;;;;;;;;;;5031885;28;20133;-65
2021/06/29 09:25:31;;;;;;;42.00;20.33;;;;;;;;;;5010752;28;20050;-65
2021/06/29 09:28:17;;;;;;;40.95;21.50;;;;;;;;;;5022987;28;20571;-64
2021/06/29 09:31:03;;;;;;;40.95;20.80;;;;;;;;;;5018151;28;20052;-65
2021/06/29 09:34:01;;;;;;;41.63;21.20;;;;;;;;;;5022190;28;20044;-64
2021/06/29 09:36:46;;;;;;;45.60;20.42;;;;;;;;;;5022770;28;20117;-64
2021/06/29 09:39:32;;;;;;;40.90;20.50;;;;;;;;;;5024682;28;20119;-64
2021/06/29 09:42:25;;;;;;;41.60;20.98;;;;;;;;;;5020775;28;20057;-64
2021/06/29 09:45:30;;;;;;;39.55;21.77;;;;;;;;;;5022252;28;20063;-64
2021/06/29 09:48:17;;;;;;;35.00;20.08;;;;;;;;;;5022761;28;20053;-64
2021/06/29 09:51:07;;;;;;;40.42;21.92;;;;;;;;;;5012283;28;20061;-64
2021/06/29 09:53:53;;;;;;;36.22;20.75;;;;;;;;;;5014417;28;20055;-64
2021/06/29 09:56:40;;;;;;;38.47;20.63;;;;;;;;;;5031927;28;20488;-64
2021/06/29 09:59:26;;;;;;;39.72;22.00;;;;;;;;;;5017180;28;20057;-64
2021/06/29 10:02:11;;;;;;;38.08;21.65;;;;;;;;;;5032007;28;20494;-64
2021/06/29 10:05:15;;;;;;;39.35;22.95;;;;;;;;;;5031247;28;20060;-64
2021/06/29 10:08:00;;;;;;;42.97;23.65;;;;;;;;;;5031136;28;20053;-64
2021/06/29 10:10:45;;;;;;;41.90;23.13;;;;;;;;;;5031800;28;20087;-64
2021/06/29 10:13:35;;;;;;;48.67;23.55;;;;;;;;;;5031889;28;20053;-65
2021/06/29 10:16:22;;;;;;;43.25;24.20;;;;;;;;;;5031162;28;20415;-64
2021/06/29 10:21:56;;;;;;;44.85;24.20;;;;;;;;;;5031847;28;20087;-65
2021/06/29 10:24:43;;;;;;;44.00;24.67;;;;;;;;;;5030990;28;20099;-64
2021/06/29 10:27:28;;;;;;;41.10;24.15;;;;;;;;;;5017437;28;20075;-65
2021/06/29 10:30:14;;;;;;;39.92;24.88;;;;;;;;;;5031447;28;20049;-65
2021/06/29 10:33:01;;;;;;;41.55;24.60;;;;;;;;;;5031811;28;20151;-65
2021/06/29 10:35:47;;;;;;;46.65;23.98;;;;;;;;;;5031271;28;20045;-65
2021/06/29 10:41:53;;;;;;;47.33;24.92;;;;;;;;;;5104289;27;20500;-65
2021/06/29 10:44:43;;;;;;;40.78;25.55;;;;;;;;;;5095001;28;20448;-64
2021/06/29 10:47:29;;;;;;;39.47;23.48;;;;;;;;;;5090546;28;20067;-65
2021/06/29 10:50:15;;;;;;;39.70;22.17;;;;;;;;;;5066778;28;20049;-65
2021/06/29 10:53:00;;;;;;;38.80;23.77;;;;;;;;;;5068978;28;20053;-64
2021/06/29 10:55:48;;;;;;;30.95;20.52;;;;;;;;;;5068140;28;20071;-65
2021/06/29 10:58:34;;;;;;;39.35;20.80;;;;;;;;;;5068157;28;20526;-64
2021/06/29 11:01:23;;;;;;;32.05;20.33;;;;;;;;;;5067598;28;20041;-64
2021/06/29 11:04:08;;;;;;;34.58;20.40;;;;;;;;;;5066954;28;20041;-65
2021/06/29 11:06:54;;;;;;;35.47;19.52;;;;;;;;;;5068381;28;20059;-65
2021/06/29 11:09:55;;;;;;;36.92;19.63;;;;;;;;;;5067052;28;20056;-65
2021/06/29 11:12:52;;;;;;;29.75;18.23;;;;;;;;;;5066792;28;20052;-64
2021/06/29 11:15:40;;;;;;;29.05;17.80;;;;;;;;;;5067602;28;20051;-65
2021/06/29 11:18:34;;;;;;;33.35;20.35;;;;;;;;;;5068178;28;20045;-65
2021/06/29 11:21:20;;;;;;;32.45;18.85;;;;;;;;;;5067577;28;20041;-65
2021/06/29 11:24:37;;;;;;;29.98;18.80;;;;;;;;;;5067590;28;20131;-65
2021/06/29 11:27:43;;;;;;;29.00;19.67;;;;;;;;;;5057338;28;20145;-64
2021/06/29 11:30:47;;;;;;;35.35;20.23;;;;;;;;;;5067551;28;20041;-64
2021/06/29 11:33:46;;;;;;;30.85;19.70;;;;;;;;;;5068017;28;20388;-64
2021/06/29 11:36:37;;;;;;;34.00;22.98;;;;;;;;;;5066807;28;20049;-64
2021/06/29 11:39:23;;;;;;;39.80;24.63;;;;;;;;;;5067267;28;20545;-64
2021/06/29 11:42:30;;;;;;;37.78;23.80;;;;;;;;;;5067559;28;20509;-64
2021/06/29 11:45:16;;;;;;;35.40;22.45;;;;;;;;;;5067262;28;20048;-65
2021/06/29 11:48:02;;;;;;;34.83;21.95;;;;;;;;;;5064207;28;20052;-65
2021/06/29 11:51:06;;;;;;;34.97;22.90;;;;;;;;;;5063106;28;20056;-65
2021/06/29 11:54:24;;;;;;;32.70;22.42;;;;;;;;;;5052370;28;20090;-65
2021/06/29 11:57:38;;;;;;;32.83;20.85;;;;;;;;;;5053537;28;20388;-65
2021/06/29 12:00:23;;;;;;;33.30;20.80;;;;;;;;;;5033912;28;20049;-64
2021/06/29 12:03:16;;;;;;;33.88;19.85;;;;;;;;;;5061286;28;20052;-65
2021/06/29 12:06:01;;;;;;;34.80;22.02;;;;;;;;;;5034339;28;20068;-64
2021/06/29 12:08:49;;;;;;;34.28;20.02;;;;;;;;;;5039407;28;20056;-64
2021/06/29 12:11:35;;;;;;;36.13;22.35;;;;;;;;;;5044099;28;20485;-65
2021/06/29 12:14:20;;;;;;;39.30;21.85;;;;;;;;;;5053773;28;20399;-65
2021/06/29 12:17:06;;;;;;;40.95;22.10;;;;;;;;;;5054147;28;20052;-65
2021/06/29 12:19:58;;;;;;;39.95;21.85;;;;;;;;;;5052712;28;20041;-64
2021/06/29 12:22:43;;;;;;;43.15;21.52;;;;;;;;;;5052396;28;20047;-64
2021/06/29 12:25:30;;;;;;;42.78;23.02;;;;;;;;;;5053971;28;20045;-64
2021/06/29 12:28:21;;;;;;;39.03;21.45;;;;;;;;;;5053818;28;20122;-64
2021/06/29 12:31:08;;;;;;;33.90;20.20;;;;;;;;;;5052205;28;20170;-65
2021/06/29 12:33:53;;;;;;;42.28;20.50;;;;;;;;;;5053620;28;20052;-64
2021/06/29 12:36:39;;;;;;;34.42;19.40;;;;;;;;;;5053713;28;20122;-65
2021/06/29 12:39:24;;;;;;;36.72;21.42;;;;;;;;;;5051934;28;20055;-64
2021/06/29 12:42:13;;;;;;;33.88;20.15;;;;;;;;;;5053155;28;20044;-65
2021/06/29 12:45:08;;;;;;;35.75;20.88;;;;;;;;;;5052395;28;20409;-65
2021/06/29 12:48:04;;;;;;;28.55;17.85;;;;;;;;;;5052762;28;20049;-64
2021/06/29 12:50:57;;;;;;;31.42;16.23;;;;;;;;;;5051510;28;20516;-64
2021/06/29 12:53:51;;;;;;;31.42;18.48;;;;;;;;;;5052429;28;20053;-64
2021/06/29 12:56:37;;;;;;;27.25;17.88;;;;;;;;;;5052027;28;20107;-66
2021/06/29 12:59:27;;;;;;;27.83;17.40;;;;;;;;;;5053114;28;20124;-64
2021/06/29 13:02:18;;;;;;;29.05;16.65;;;;;;;;;;5051868;28;20045;-64
2021/06/29 13:05:08;;;;;;;26.42;16.13;;;;;;;;;;5079527;28;20098;-65
2021/06/29 13:07:54;;;;;;;29.70;17.35;;;;;;;;;;5051361;28;20037;-64
2021/06/29 13:10:39;;;;;;;27.42;15.98;;;;;;;;;;5032347;28;20599;-64
2021/06/29 13:13:24;;;;;;;28.77;17.08;;;;;;;;;;5048752;28;20076;-65
2021/06/29 13:16:17;;;;;;;28.85;16.23;;;;;;;;;;5051790;28;20112;-65
2021/06/29 13:19:02;;;;;;;28.58;15.82;;;;;;;;;;5052587;28;20094;-64
2021/06/29 13:21:58;;;;;;;30.52;16.45;;;;;;;;;;5052283;28;20060;-66
2021/06/29 13:24:45;;;;;;;27.27;15.25;;;;;;;;;;5051696;28;20160;-64
2021/06/29 13:27:31;;;;;;;26.48;16.00;;;;;;;;;;5052245;28;20175;-64
2021/06/29 13:30:17;;;;;;;27.05;16.23;;;;;;;;;;5050809;28;21050;-64
2021/06/29 13:33:02;;;;;;;25.33;14.43;;;;;;;;;;5044690;28;20136;-64
2021/06/29 13:35:48;;;;;;;25.52;16.02;;;;;;;;;;5046306;28;20514;-65
2021/06/29 13:38:34;;;;;;;26.75;17.00;;;;;;;;;;5043817;28;20047;-64
2021/06/29 13:41:31;;;;;;;29.25;15.85;;;;;;;;;;5037526;28;20048;-66
2021/06/29 13:44:16;;;;;;;31.50;17.90;;;;;;;;;;5050672;28;20052;-64
2021/06/29 13:47:03;;;;;;;26.38;16.48;;;;;;;;;;5049708;28;20055;-66
2021/06/29 13:50:09;;;;;;;30.83;16.50;;;;;;;;;;5041206;28;20055;-65
2021/06/29 13:52:55;;;;;;;25.80;16.90;;;;;;;;;;5050022;28;20051;-66
2021/06/29 13:56:00;;;;;;;28.15;16.00;;;;;;;;;;5051641;28;20052;-66
2021/06/29 13:58:49;;;;;;;23.67;14.85;;;;;;;;;;5051551;28;20055;-65
2021/06/29 14:01:34;;;;;;;26.58;14.68;;;;;;;;;;5048651;28;20048;-66
2021/06/29 14:04:19;;;;;;;26.38;14.00;;;;;;;;;;5050696;28;20048;-66
2021/06/29 14:07:11;;;;;;;26.17;15.15;;;;;;;;;;5050097;28;20103;-65
2021/06/29 14:09:57;;;;;;;24.75;13.95;;;;;;;;;;5051536;28;20120;-66
2021/06/29 14:12:42;;;;;;;24.67;15.32;;;;;;;;;;5050286;28;20067;-66
2021/06/29 14:15:27;;;;;;;26.67;14.70;;;;;;;;;;5051328;28;20056;-65
2021/06/29 14:18:13;;;;;;;29.40;15.32;;;;;;;;;;5050565;28;20534;-65
2021/06/29 14:20:58;;;;;;;25.60;14.98;;;;;;;;;;5050134;28;20060;-66
2021/06/29 14:23:43;;;;;;;26.48;15.20;;;;;;;;;;5051496;28;20368;-66
2021/06/29 14:26:29;;;;;;;27.88;15.68;;;;;;;;;;5051631;28;20134;-65
2021/06/29 14:29:14;;;;;;;25.40;14.77;;;;;;;;;;5049607;28;20126;-65
2021/06/29 14:31:59;;;;;;;32.10;16.55;;;;;;;;;;5050616;28;20052;-65
2021/06/29 14:34:46;;;;;;;29.23;16.42;;;;;;;;;;5059680;28;20417;-64
2021/06/29 14:37:31;;;;;;;25.30;14.43;;;;;;;;;;5071499;28;20051;-64
2021/06/29 14:40:17;;;;;;;27.20;14.68;;;;;;;;;;5030828;28;20053;-64
2021/06/29 14:43:02;;;;;;;28.38;15.52;;;;;;;;;;5046862;28;20056;-65
2021/06/29 14:45:48;;;;;;;27.15;15.27;;;;;;;;;;5057311;28;20049;-64
2021/06/29 14:48:33;;;;;;;32.67;16.13;;;;;;;;;;5050295;28;20672;-65
2021/06/29 14:51:24;;;;;;;27.67;15.82;;;;;;;;;;5049649;28;20071;-65
2021/06/29 14:54:10;;;;;;;26.45;15.35;;;;;;;;;;5041174;28;20056;-66
2021/06/29 14:56:54;;;;;;;28.33;15.40;;;;;;;;;;5048715;28;20406;-65
2021/06/29 14:59:40;;;;;;;27.63;16.40;;;;;;;;;;5037395;28;20103;-66
2021/06/29 15:02:25;;;;;;;29.30;16.50;;;;;;;;;;5035502;28;20048;-64
2021/06/29 15:05:11;;;;;;;28.02;16.10;;;;;;;;;;5048858;28;20052;-64
2021/06/29 15:07:59;;;;;;;24.45;13.93;;;;;;;;;;5049256;28;20044;-65
2021/06/29 15:10:44;;;;;;;21.75;13.25;;;;;;;;;;5047164;28;20072;-65
2021/06/29 15:13:29;;;;;;;20.42;11.90;;;;;;;;;;5047334;28;20056;-66
2021/06/29 15:16:15;;;;;;;20.50;10.98;;;;;;;;;;5049701;28;20060;-65
2021/06/29 15:19:00;;;;;;;18.70;11.13;;;;;;;;;;5047851;28;20060;-65
2021/06/29 15:21:45;;;;;;;22.95;11.45;;;;;;;;;;5048814;28;20052;-66
2021/06/29 15:24:31;;;;;;;21.27;11.73;;;;;;;;;;5072649;28;20056;-65
2021/06/29 15:27:16;;;;;;;20.98;10.38;;;;;;;;;;5050990;28;20510;-67
2021/06/29 15:30:01;;;;;;;20.65;11.25;;;;;;;;;;5032554;28;20056;-66
2021/06/29 15:32:46;;;;;;;17.35;11.38;;;;;;;;;;5032222;28;20049;-66
2021/06/29 15:35:32;;;;;;;19.95;9.90;;;;;;;;;;5049755;28;20056;-65
2021/06/29 15:38:17;;;;;;;17.20;9.75;;;;;;;;;;5053067;28;20048;-66
2021/06/29 15:41:04;;;;;;;19.55;9.90;;;;;;;;;;5052089;28;20408;-66
2021/06/29 15:43:49;;;;;;;19.75;10.23;;;;;;;;;;5051673;28;20052;-65
2021/06/29 15:46:34;;;;;;;19.77;10.18;;;;;;;;;;5052127;28;20120;-66
2021/06/29 15:49:19;;;;;;;15.98;9.15;;;;;;;;;;5051072;28;20049;-66
2021/06/29 15:52:24;;;;;;;9.55;7.03;;;;;;;;;;5051252;28;20049;-65
2021/06/29 15:55:10;;;;;;;13.85;6.72;;;;;;;;;;5046383;28;20057;-66
2021/06/29 15:57:55;;;;;;;11.50;7.53;;;;;;;;;;5052994;28;20506;-65
2021/06/29 16:00:41;;;;;;;11.40;7.57;;;;;;;;;;5050543;28;20423;-65
2021/06/29 16:03:26;;;;;;;12.80;6.97;;;;;;;;;;5052063;28;20166;-65
2021/06/29 16:06:11;;;;;;;16.55;8.05;;;;;;;;;;5052084;28;20419;-67
2021/06/29 16:08:56;;;;;;;11.55;7.63;;;;;;;;;;5052480;28;20067;-66
2021/06/29 16:11:42;;;;;;;13.23;7.72;;;;;;;;;;5051674;28;20075;-66
2021/06/29 16:14:27;;;;;;;13.98;8.18;;;;;;;;;;5052147;28;20057;-66
2021/06/29 16:17:12;;;;;;;12.95;6.72;;;;;;;;;;5050572;28;20198;-66
2021/06/29 16:19:58;;;;;;;12.77;8.65;;;;;;;;;;5078336;28;20584;-65
2021/06/29 16:22:43;;;;;;;18.23;8.35;;;;;;;;;;5050602;28;20052;-66